createdAt,value
2023-03-12T00:02:19.043Z,1.87
2023-03-12T00:04:45.448Z,2.30
2023-03-12T00:07:11.848Z,1.70
2023-03-12T00:09:39.231Z,2.27
2023-03-12T00:12:06.426Z,2.27
2023-03-12T00:14:34.253Z,2.17
2023-03-12T00:17:00.750Z,2.00
2023-03-12T00:19:27.678Z,2.33
2023-03-12T00:21:54.273Z,1.93
2023-03-12T00:24:21.076Z,1.80
2023-03-12T00:26:47.680Z,2.50
2023-03-12T00:29:14.135Z,2.33
2023-03-12T00:31:41.236Z,2.50
2023-03-12T00:34:08.052Z,2.80
2023-03-12T00:36:34.613Z,2.30
2023-03-12T00:39:02.218Z,2.60
2023-03-12T00:41:30.581Z,2.33
2023-03-12T00:43:57.512Z,2.73
2023-03-12T00:46:24.124Z,2.43
2023-03-12T00:48:50.830Z,1.80
2023-03-12T00:51:17.756Z,1.97
2023-03-12T00:53:44.740Z,2.13
2023-03-12T00:56:11.281Z,1.80
2023-03-12T00:58:38.064Z,1.77
2023-03-12T01:01:04.759Z,2.87
2023-03-12T01:03:31.120Z,2.03
2023-03-12T01:05:57.964Z,2.10
2023-03-12T01:08:25.122Z,2.20
2023-03-12T01:10:51.913Z,2.23
2023-03-12T01:13:18.357Z,2.30
2023-03-12T01:15:44.801Z,2.23
2023-03-12T01:18:11.213Z,2.03
2023-03-12T01:20:40.309Z,2.00
2023-03-12T01:23:07.906Z,2.57
2023-03-12T01:25:35.399Z,1.73
2023-03-12T01:28:02.110Z,1.77
2023-03-12T01:30:29.032Z,1.80
2023-03-12T01:32:57.966Z,1.70
2023-03-12T01:35:24.871Z,1.67
2023-03-12T01:37:52.649Z,1.80
2023-03-12T01:40:20.645Z,2.03
2023-03-12T01:42:54.396Z,1.43
2023-03-12T01:45:39.954Z,1.60
2023-03-12T01:48:06.572Z,1.70
2023-03-12T01:50:33.745Z,2.93
2023-03-12T01:53:20.604Z,1.60
2023-03-12T01:55:47.417Z,2.00
2023-03-12T01:58:15.237Z,2.03
2023-03-12T02:00:41.898Z,1.77
2023-03-12T02:03:08.936Z,1.93
2023-03-12T02:05:51.452Z,1.77
2023-03-12T02:08:18.130Z,1.77
2023-03-12T02:10:44.958Z,1.80
2023-03-12T02:13:11.957Z,1.80
2023-03-12T02:15:47.588Z,1.70
2023-03-12T02:18:16.412Z,1.77
2023-03-12T02:20:55.218Z,1.73
2023-03-12T02:23:33.832Z,1.63
2023-03-12T02:26:01.997Z,1.63
2023-03-12T02:28:29.449Z,1.50
2023-03-12T02:30:58.285Z,1.43
2023-03-12T02:33:43.784Z,1.70
2023-03-12T02:36:10.616Z,1.87
2023-03-12T02:38:42.675Z,1.70
2023-03-12T02:41:12.516Z,1.50
2023-03-12T02:43:39.636Z,1.40
2023-03-12T02:46:08.114Z,1.40
2023-03-12T02:48:34.899Z,1.80
2023-03-12T02:51:03.272Z,1.43
2023-03-12T02:53:30.695Z,2.00
2023-03-12T02:55:57.450Z,1.10
2023-03-12T02:58:24.371Z,1.53
2023-03-12T03:00:50.962Z,1.43
2023-03-12T03:03:17.513Z,2.20
2023-03-12T03:05:44.184Z,2.10
2023-03-12T03:08:10.761Z,2.27
2023-03-12T03:10:37.238Z,1.80
2023-03-12T03:13:03.693Z,1.47
2023-03-12T03:15:30.199Z,1.93
2023-03-12T03:17:58.289Z,1.77
2023-03-12T03:20:26.559Z,2.40
2023-03-12T03:22:53.003Z,4.60
2023-03-12T03:25:22.222Z,6.17
2023-03-12T03:27:49.728Z,4.57
2023-03-12T03:30:16.739Z,4.50
2023-03-12T03:32:45.892Z,4.03
2023-03-12T03:35:13.613Z,4.80
2023-03-12T03:37:40.462Z,4.10
2023-03-12T03:40:07.635Z,3.40
2023-03-12T03:42:34.038Z,3.37
2023-03-12T03:45:01.010Z,3.60
2023-03-12T03:47:27.435Z,2.90
2023-03-12T03:49:53.842Z,3.50
2023-03-12T03:52:20.683Z,3.83
2023-03-12T03:54:47.126Z,2.93
2023-03-12T03:57:13.654Z,3.10
2023-03-12T03:59:40.067Z,2.60
2023-03-12T04:02:06.521Z,2.77
2023-03-12T04:04:35.744Z,2.80
2023-03-12T04:07:02.159Z,2.93
2023-03-12T04:09:30.406Z,3.43
2023-03-12T04:11:56.881Z,3.83
2023-03-12T04:14:23.258Z,3.00
2023-03-12T04:16:50.138Z,2.90
2023-03-12T04:19:17.099Z,2.43
2023-03-12T04:21:43.564Z,2.50
2023-03-12T04:24:14.076Z,2.23
2023-03-12T04:26:40.722Z,2.40
2023-03-12T04:29:07.724Z,2.50
2023-03-12T04:31:34.562Z,2.43
2023-03-12T04:34:01.384Z,2.50
2023-03-12T04:36:28.343Z,2.93
2023-03-12T04:38:55.547Z,3.10
2023-03-12T04:41:26.697Z,2.90
2023-03-12T04:43:59.170Z,2.67
2023-03-12T04:46:25.944Z,2.43
2023-03-12T04:48:52.362Z,2.50
2023-03-12T04:51:18.820Z,2.20
2023-03-12T04:53:45.268Z,2.33
2023-03-12T04:56:13.051Z,2.93
2023-03-12T04:58:41.067Z,2.33
2023-03-12T05:01:07.528Z,2.83
2023-03-12T05:03:35.523Z,2.90
2023-03-12T05:06:02.058Z,2.77
2023-03-12T05:08:28.510Z,2.53
2023-03-12T05:10:55.091Z,2.70
2023-03-12T05:13:22.605Z,2.37
2023-03-12T05:15:51.857Z,2.37
2023-03-12T05:18:21.299Z,2.67
2023-03-12T05:20:47.865Z,2.63
2023-03-12T05:23:14.351Z,2.37
2023-03-12T05:25:40.770Z,2.50
2023-03-12T05:28:07.787Z,2.20
2023-03-12T05:30:35.438Z,2.33
2023-03-12T05:33:02.199Z,2.17
2023-03-12T05:35:28.934Z,2.77
2023-03-12T05:37:55.340Z,2.80
2023-03-12T05:40:21.753Z,2.70
2023-03-12T05:42:48.307Z,2.80
2023-03-12T05:45:14.804Z,2.43
2023-03-12T05:47:46.180Z,2.90
2023-03-12T05:50:12.821Z,3.33
2023-03-12T05:52:39.254Z,2.90
2023-03-12T05:55:06.017Z,2.83
2023-03-12T05:57:33.237Z,2.50
2023-03-12T06:00:01.158Z,2.43
2023-03-12T06:02:27.800Z,2.63
2023-03-12T06:04:54.305Z,2.83
2023-03-12T06:07:20.731Z,3.20
2023-03-12T06:09:47.300Z,2.90
2023-03-12T06:12:14.314Z,2.93
2023-03-12T06:14:41.017Z,3.10
2023-03-12T06:17:07.434Z,2.73
2023-03-12T06:19:34.302Z,2.03
2023-03-12T06:22:00.842Z,2.40
2023-03-12T06:24:27.889Z,2.57
2023-03-12T06:26:59.491Z,2.33
2023-03-12T06:29:25.909Z,3.03
2023-03-12T06:31:52.610Z,3.50
2023-03-12T06:34:19.089Z,3.20
2023-03-12T06:36:45.542Z,2.90
2023-03-12T06:39:11.952Z,3.23
2023-03-12T06:41:38.377Z,3.20
2023-03-12T06:44:06.047Z,4.10
2023-03-12T06:46:32.728Z,4.47
2023-03-12T06:48:59.124Z,3.93
2023-03-12T06:51:25.694Z,4.70
2023-03-12T06:53:52.121Z,8.80
2023-03-12T06:56:18.694Z,9.47
2023-03-12T06:58:45.383Z,7.00
2023-03-12T07:01:12.025Z,4.80
2023-03-12T07:03:38.483Z,3.50
2023-03-12T07:06:05.109Z,3.43
2023-03-12T07:08:31.711Z,3.03
2023-03-12T07:11:01.201Z,3.70
2023-03-12T07:13:27.964Z,2.43
2023-03-12T07:15:54.422Z,2.50
2023-03-12T07:18:21.136Z,2.93
2023-03-12T07:20:47.580Z,2.60
2023-03-12T07:23:14.276Z,2.40
2023-03-12T07:25:41.754Z,3.47
2023-03-12T07:28:08.666Z,3.10
2023-03-12T07:30:35.164Z,2.97
2023-03-12T07:33:02.782Z,2.97
2023-03-12T07:35:31.126Z,3.70
2023-03-12T07:37:57.910Z,4.30
2023-03-12T07:40:24.327Z,3.60
2023-03-12T07:42:51.266Z,2.90
2023-03-12T07:45:17.978Z,2.90
2023-03-12T07:47:44.871Z,3.50
2023-03-12T07:50:12.300Z,2.97
2023-03-12T07:52:38.704Z,3.40
2023-03-12T07:55:05.472Z,4.33
2023-03-12T07:57:31.892Z,3.13
2023-03-12T07:59:58.402Z,3.17
2023-03-12T08:02:24.954Z,3.33
2023-03-12T08:04:51.391Z,2.63
2023-03-12T08:07:17.869Z,2.40
2023-03-12T08:09:44.438Z,2.67
2023-03-12T08:12:11.129Z,2.70
2023-03-12T08:14:37.609Z,2.33
2023-03-12T08:17:04.001Z,2.67
2023-03-12T08:19:30.989Z,2.67
2023-03-12T08:21:58.001Z,2.57
2023-03-12T08:24:24.423Z,2.60
2023-03-12T08:26:50.841Z,3.53
2023-03-12T08:29:17.546Z,3.10
2023-03-12T08:32:01.502Z,2.60
2023-03-12T08:34:30.405Z,2.10
2023-03-12T08:36:56.823Z,2.37
2023-03-12T08:39:23.216Z,2.80
2023-03-12T08:41:49.616Z,2.57
2023-03-12T08:44:16.043Z,2.70
2023-03-12T08:46:42.451Z,2.40
2023-03-12T08:49:09.425Z,2.63
2023-03-12T08:51:35.949Z,2.37
2023-03-12T08:54:03.162Z,2.23
2023-03-12T08:56:29.654Z,2.27
2023-03-12T08:58:56.128Z,2.20
2023-03-12T09:01:23.539Z,2.20
2023-03-12T09:03:52.912Z,2.37
2023-03-12T09:06:19.470Z,2.23
2023-03-12T09:08:46.899Z,1.80
2023-03-12T09:11:14.651Z,2.00
2023-03-12T09:14:03.896Z,3.10
2023-03-12T09:16:28.598Z,2.03
2023-03-12T09:18:55.489Z,2.20
2023-03-12T09:21:22.064Z,2.17
2023-03-12T09:23:48.587Z,2.03
2023-03-12T09:26:14.974Z,1.80
2023-03-12T09:28:42.614Z,1.90
2023-03-12T09:31:09.070Z,2.90
2023-03-12T09:33:35.865Z,2.30
2023-03-12T09:36:03.126Z,2.13
2023-03-12T09:38:31.790Z,3.10
2023-03-12T09:40:58.600Z,1.57
2023-03-12T09:43:39.900Z,2.13
2023-03-12T09:46:11.845Z,2.20
2023-03-12T09:48:38.327Z,2.83
2023-03-12T09:51:18.366Z,2.80
2023-03-12T09:53:48.611Z,2.33
2023-03-12T09:56:17.056Z,2.17
2023-03-12T09:58:47.999Z,2.20
2023-03-12T10:01:25.829Z,1.90
2023-03-12T10:03:52.641Z,2.30
2023-03-12T10:06:21.476Z,2.00
2023-03-12T10:08:51.085Z,2.80
2023-03-12T10:11:27.117Z,1.97
2023-03-12T10:13:53.920Z,3.10
2023-03-12T10:16:27.923Z,2.07
2023-03-12T10:19:00.603Z,1.73
2023-03-12T10:21:37.691Z,2.20
2023-03-12T10:24:20.406Z,2.50
2023-03-12T10:26:49.423Z,2.10
2023-03-12T10:29:22.607Z,2.07
2023-03-12T10:31:51.834Z,2.27
2023-03-12T10:34:24.851Z,2.60
2023-03-12T10:36:51.529Z,2.00
2023-03-12T10:39:19.408Z,2.40
2023-03-12T10:41:47.563Z,2.77
2023-03-12T10:44:20.699Z,2.70
2023-03-12T10:46:56.577Z,2.30
2023-03-12T10:49:22.937Z,2.07
2023-03-12T10:51:58.083Z,2.40
2023-03-12T10:54:44.767Z,2.50
2023-03-12T10:57:12.174Z,2.37
2023-03-12T10:59:42.870Z,2.77
2023-03-12T11:02:24.237Z,2.13
2023-03-12T11:04:51.892Z,2.37
2023-03-12T11:07:21.278Z,2.50
2023-03-12T11:10:04.020Z,1.80
2023-03-12T11:12:31.007Z,2.00
2023-03-12T11:14:58.170Z,2.47
2023-03-12T11:17:28.850Z,2.10
2023-03-12T11:19:55.291Z,2.80
2023-03-12T11:22:32.365Z,2.57
2023-03-12T11:25:00.339Z,1.60
2023-03-12T11:27:38.014Z,1.83
2023-03-12T11:30:06.096Z,1.80
2023-03-12T11:32:43.432Z,1.57
2023-03-12T11:35:13.907Z,2.20
2023-03-12T11:38:02.814Z,2.00
2023-03-12T11:40:41.985Z,2.23
2023-03-12T11:43:08.382Z,2.33
2023-03-12T11:45:49.263Z,1.90
2023-03-12T11:48:36.051Z,2.00
2023-03-12T11:51:21.500Z,2.20
2023-03-12T11:53:56.316Z,1.90
2023-03-12T11:56:43.953Z,1.57
2023-03-12T11:59:19.629Z,1.67
2023-03-12T12:02:02.465Z,1.40
2023-03-12T12:04:31.693Z,1.63
2023-03-12T12:07:00.870Z,1.57
2023-03-12T12:09:44.069Z,2.00
2023-03-12T12:12:19.752Z,1.57
2023-03-12T12:14:58.412Z,2.00
2023-03-12T12:17:38.154Z,1.67
2023-03-12T12:20:16.804Z,1.33
2023-03-12T12:22:57.861Z,1.70
2023-03-12T12:25:47.606Z,1.80
2023-03-12T12:28:16.749Z,1.93
2023-03-12T12:31:02.112Z,2.20
2023-03-12T12:33:46.464Z,1.87
2023-03-12T12:36:13.610Z,2.77
2023-03-12T12:38:42.940Z,2.87
2023-03-12T12:41:17.572Z,2.23
2023-03-12T12:43:48.846Z,1.90
2023-03-12T12:46:26.404Z,2.53
2023-03-12T12:49:18.078Z,2.67
2023-03-12T12:51:47.880Z,3.03
2023-03-12T12:54:16.129Z,2.10
2023-03-12T12:56:45.804Z,3.00
2023-03-12T12:59:27.649Z,2.90
2023-03-12T13:01:55.508Z,2.53
2023-03-12T13:04:38.484Z,3.07
2023-03-12T13:07:14.157Z,2.80
2023-03-12T13:09:53.342Z,2.73
2023-03-12T13:12:19.792Z,3.70
2023-03-12T13:14:46.470Z,3.07
2023-03-12T13:17:21.755Z,2.93
2023-03-12T13:19:55.474Z,2.90
2023-03-12T13:22:27.479Z,2.90
2023-03-12T13:25:12.830Z,2.83
2023-03-12T13:27:40.959Z,3.07
2023-03-12T13:30:25.905Z,2.50
2023-03-12T13:32:58.757Z,2.50
2023-03-12T13:35:25.178Z,2.80
2023-03-12T13:37:51.587Z,2.47
2023-03-12T13:40:29.966Z,2.70
2023-03-12T13:43:13.148Z,2.97
2023-03-12T13:45:55.930Z,2.20
2023-03-12T13:48:22.666Z,3.10
2023-03-12T13:50:52.014Z,3.20
2023-03-12T13:53:25.611Z,2.50
2023-03-12T13:56:06.902Z,2.53
2023-03-12T13:58:40.665Z,2.60
2023-03-12T14:01:14.956Z,3.50
2023-03-12T14:03:43.897Z,3.07
2023-03-12T14:06:24.242Z,3.07
2023-03-12T14:08:57.503Z,3.20
2023-03-12T14:11:30.178Z,2.83
2023-03-12T14:14:14.997Z,3.53
2023-03-12T14:16:46.118Z,3.80
2023-03-12T14:19:13.505Z,3.93
2023-03-12T14:21:41.594Z,3.73
2023-03-12T14:24:13.425Z,3.57
2023-03-12T14:26:39.917Z,2.77
2023-03-12T14:29:09.323Z,3.30
2023-03-12T14:31:36.179Z,3.63
2023-03-12T14:34:07.231Z,3.57
2023-03-12T14:36:43.177Z,3.13
2023-03-12T14:39:16.169Z,3.07
2023-03-12T14:41:45.590Z,3.30
2023-03-12T14:44:21.748Z,2.93
2023-03-12T14:47:09.925Z,3.30
2023-03-12T14:49:46.493Z,3.77
2023-03-12T14:52:34.498Z,3.23
2023-03-12T14:55:02.814Z,4.00
2023-03-12T14:57:30.335Z,3.90
2023-03-12T14:59:58.353Z,3.30
2023-03-12T15:02:25.588Z,3.50
2023-03-12T15:04:55.214Z,4.47
2023-03-12T15:07:29.975Z,4.20
2023-03-12T15:09:56.558Z,4.37
2023-03-12T15:12:27.408Z,4.10
2023-03-12T15:14:55.729Z,3.40
2023-03-12T15:17:23.487Z,3.67
2023-03-12T15:19:50.304Z,4.90
2023-03-12T15:22:18.332Z,4.57
2023-03-12T15:24:45.183Z,3.60
2023-03-12T15:27:20.616Z,3.73
2023-03-12T15:29:47.236Z,3.40
2023-03-12T15:32:14.633Z,4.60
2023-03-12T15:34:41.655Z,3.40
2023-03-12T15:37:29.645Z,3.83
2023-03-12T15:39:56.561Z,4.13
2023-03-12T15:42:24.924Z,4.50
2023-03-12T15:44:54.519Z,4.73
2023-03-12T15:47:25.273Z,4.57
2023-03-12T15:49:54.303Z,4.50
2023-03-12T15:52:24.537Z,5.73
2023-03-12T15:55:09.847Z,5.10
2023-03-12T15:57:55.252Z,5.03
2023-03-12T16:00:25.880Z,5.33
2023-03-12T16:02:57.047Z,5.40
2023-03-12T16:05:29.030Z,4.40
2023-03-12T16:07:55.660Z,5.07
2023-03-12T16:10:23.158Z,4.20
2023-03-12T16:12:50.438Z,5.57
2023-03-12T16:15:20.768Z,5.07
2023-03-12T16:17:47.147Z,5.10
2023-03-12T16:20:14.734Z,5.33
2023-03-12T16:22:41.786Z,5.63
2023-03-12T16:25:10.111Z,5.00
2023-03-12T16:27:40.070Z,5.23
2023-03-12T16:30:12.124Z,5.93
2023-03-12T16:32:38.615Z,5.40
2023-03-12T16:35:12.406Z,7.20
2023-03-12T16:37:39.046Z,4.80
2023-03-12T16:40:06.227Z,5.50
2023-03-12T16:42:34.189Z,5.83
2023-03-12T16:45:00.767Z,6.63
2023-03-12T16:47:27.512Z,5.73
2023-03-12T16:49:54.122Z,6.13
2023-03-12T16:52:26.436Z,7.50
2023-03-12T16:54:53.031Z,7.70
2023-03-12T16:57:23.253Z,7.60
2023-03-12T16:59:49.815Z,9.63
2023-03-12T17:02:18.754Z,8.60
2023-03-12T17:04:45.423Z,8.03
2023-03-12T17:07:12.245Z,9.07
2023-03-12T17:09:38.732Z,8.23
2023-03-12T17:12:06.159Z,9.07
2023-03-12T17:14:32.797Z,7.90
2023-03-12T17:16:59.553Z,8.20
2023-03-12T17:19:26.102Z,9.03
2023-03-12T17:21:52.689Z,11.10
2023-03-12T17:24:19.192Z,9.73
2023-03-12T17:26:46.367Z,12.47
2023-03-12T17:29:12.781Z,11.20
2023-03-12T17:31:39.572Z,8.67
2023-03-12T17:34:06.373Z,10.17
2023-03-12T17:36:35.815Z,8.80
2023-03-12T17:39:02.541Z,10.10
2023-03-12T17:41:30.736Z,10.27
2023-03-12T17:44:01.427Z,9.77
2023-03-12T17:46:29.985Z,8.63
2023-03-12T17:48:56.442Z,8.90
2023-03-12T17:51:23.820Z,8.90
2023-03-12T17:53:50.224Z,9.13
2023-03-12T17:56:18.078Z,8.97
2023-03-12T17:58:45.233Z,8.50
2023-03-12T18:01:13.472Z,9.23
2023-03-12T18:03:40.112Z,8.80
2023-03-12T18:06:06.883Z,9.57
2023-03-12T18:08:33.469Z,9.20
2023-03-12T18:11:01.587Z,11.20
2023-03-12T18:13:28.073Z,10.57
2023-03-12T18:15:55.567Z,9.90
2023-03-12T18:18:22.787Z,10.60
2023-03-12T18:20:49.505Z,9.10
2023-03-12T18:23:16.578Z,9.90
2023-03-12T18:25:43.265Z,10.57
2023-03-12T18:28:09.809Z,10.63
2023-03-12T18:30:36.249Z,11.47
2023-03-12T18:33:03.312Z,10.00
2023-03-12T18:35:30.441Z,9.63
2023-03-12T18:37:57.326Z,9.70
2023-03-12T18:40:24.109Z,9.77
2023-03-12T18:42:50.549Z,9.20
2023-03-12T18:45:17.646Z,10.40
2023-03-12T18:47:45.462Z,11.00
2023-03-12T18:50:12.738Z,10.70
2023-03-12T18:52:39.492Z,9.70
2023-03-12T18:57:44.697Z,10.10
2023-03-12T19:00:15.871Z,11.50
2023-03-12T19:02:42.712Z,10.80
2023-03-12T19:05:10.987Z,9.60
2023-03-12T19:07:39.075Z,11.53
2023-03-12T19:10:06.978Z,10.70
2023-03-12T19:12:45.522Z,9.97
2023-03-12T19:15:17.131Z,10.80
2023-03-12T19:17:43.857Z,9.70
2023-03-12T19:20:10.709Z,10.00
2023-03-12T19:22:37.194Z,10.30
2023-03-12T19:25:04.030Z,10.60
2023-03-12T19:27:30.547Z,8.97
2023-03-12T19:29:57.161Z,9.53
2023-03-12T19:32:25.507Z,9.77
2023-03-12T19:34:54.211Z,9.63
2023-03-12T19:37:22.034Z,8.93
2023-03-12T19:39:48.484Z,10.03
2023-03-12T19:42:16.077Z,9.83
2023-03-12T19:44:43.170Z,9.17
2023-03-12T19:47:09.987Z,8.97
2023-03-12T19:49:36.448Z,8.73
2023-03-12T19:52:03.598Z,10.00
2023-03-12T19:54:30.348Z,9.57
2023-03-12T19:56:56.772Z,9.53
2023-03-12T19:59:23.220Z,9.60
2023-03-12T20:01:49.683Z,9.60
2023-03-12T20:04:16.117Z,9.83
2023-03-12T20:06:42.585Z,7.50
2023-03-12T20:09:09.038Z,8.63
2023-03-12T20:11:35.841Z,8.77
2023-03-12T20:14:03.133Z,7.90
2023-03-12T20:16:29.603Z,7.90
2023-03-12T20:18:56.600Z,7.90
2023-03-12T20:21:23.363Z,7.00
2023-03-12T20:23:49.784Z,7.40
2023-03-12T20:26:16.194Z,7.23
2023-03-12T20:28:49.711Z,7.40
2023-03-12T20:31:16.827Z,8.20
2023-03-12T20:33:43.958Z,8.87
2023-03-12T20:36:13.700Z,7.20
2023-03-12T20:38:40.288Z,6.77
2023-03-12T20:41:11.589Z,7.33
2023-03-12T20:43:37.989Z,6.37
2023-03-12T20:46:04.545Z,5.87
2023-03-12T20:48:31.027Z,5.67
2023-03-12T20:50:58.398Z,7.90
2023-03-12T20:53:24.846Z,9.20
2023-03-12T20:55:51.259Z,6.33
2023-03-12T20:58:17.686Z,6.20
2023-03-12T21:00:44.642Z,5.50
2023-03-12T21:03:12.539Z,6.70
2023-03-12T21:05:39.030Z,8.77
2023-03-12T21:08:05.703Z,8.20
2023-03-12T21:10:35.203Z,5.73
2023-03-12T21:13:01.620Z,5.40
2023-03-12T21:15:28.088Z,6.50
2023-03-12T21:17:54.547Z,5.70
2023-03-12T21:20:21.163Z,6.00
2023-03-12T21:22:47.836Z,5.40
2023-03-12T21:25:14.748Z,5.30
2023-03-12T21:27:50.294Z,5.07
2023-03-12T21:30:17.742Z,4.70
2023-03-12T21:32:44.257Z,6.03
2023-03-12T21:35:11.169Z,6.80
2023-03-12T21:37:37.551Z,5.00
2023-03-12T21:40:04.892Z,5.73
2023-03-12T21:42:32.643Z,6.30
2023-03-12T21:44:59.054Z,5.10
2023-03-12T21:47:25.521Z,5.23
2023-03-12T21:49:51.971Z,5.60
2023-03-12T21:52:18.363Z,5.50
2023-03-12T21:54:45.316Z,5.50
2023-03-12T21:57:11.777Z,4.53
2023-03-12T21:59:38.169Z,6.23
2023-03-12T22:02:04.875Z,5.33
2023-03-12T22:04:32.079Z,5.70
2023-03-12T22:06:59.487Z,4.97
2023-03-12T22:09:25.977Z,5.20
2023-03-12T22:11:52.430Z,6.80
2023-03-12T22:14:19.256Z,5.23
2023-03-12T22:16:45.747Z,7.07
2023-03-12T22:19:12.791Z,5.53
2023-03-12T22:21:39.233Z,5.50
2023-03-12T22:24:05.742Z,5.40
2023-03-12T22:26:32.184Z,6.07
2023-03-12T22:29:01.087Z,5.93
2023-03-12T22:31:28.276Z,5.33
2023-03-12T22:33:55.285Z,6.40
2023-03-12T22:36:21.908Z,5.97
2023-03-12T22:38:48.621Z,6.87
2023-03-12T22:41:17.471Z,6.83
2023-03-12T22:43:44.232Z,6.30
2023-03-12T22:46:11.033Z,6.03
2023-03-12T22:48:38.091Z,8.37
2023-03-12T22:51:05.109Z,7.07
2023-03-12T22:53:32.327Z,5.20
2023-03-12T22:56:00.353Z,5.70
2023-03-12T22:58:27.040Z,6.90
2023-03-12T23:00:59.640Z,5.90
2023-03-12T23:03:26.327Z,7.10
2023-03-12T23:05:52.737Z,6.63
2023-03-12T23:08:19.130Z,7.37
2023-03-12T23:10:56.514Z,5.83
2023-03-12T23:13:23.162Z,5.70
2023-03-12T23:15:49.613Z,5.80
2023-03-12T23:18:16.400Z,5.77
2023-03-12T23:20:42.924Z,6.53
2023-03-12T23:23:09.370Z,6.60
2023-03-12T23:25:35.770Z,7.23
2023-03-12T23:28:02.237Z,7.33
2023-03-12T23:30:28.705Z,6.77
2023-03-12T23:32:55.182Z,6.77
2023-03-12T23:35:21.955Z,8.47
2023-03-12T23:37:49.277Z,6.43
2023-03-12T23:40:17.036Z,6.10
2023-03-12T23:42:43.940Z,5.93
2023-03-12T23:45:11.234Z,5.40
2023-03-12T23:47:37.967Z,6.70
2023-03-12T23:50:04.707Z,6.47
2023-03-12T23:52:31.106Z,6.33
2023-03-12T23:54:57.499Z,6.07
2023-03-12T23:57:23.876Z,5.77
2023-03-12T23:59:50.258Z,5.53
